METAR AND TAF INFORMATION
METAR FOR EDMO
ADDS - METARS form results

(1941 UTC 24 March 2019)
Data provider http://aviationweather.gov/metar/data/
 
METAR text: EDMO 241920Z AUTO 33008KT 8000 // BKN059/// 11/05 Q1021
Conditions at: EDMO (OBERPFAFFENHOFEN, DE) observed 1920 UTC 24 March 2019
Temperature: 11.0°C (52°F)
Dewpoint: 5.0°C (41°F) [RH = 66%]
Pressure (altimeter): 30.15 inches Hg (1021.0 mb)
Winds: from the NNW (330 degrees) at 9 MPH (8 knots; 4.1 m/s)
Visibility: 5 miles ( 8 km)
Ceiling: 5900 feet AGL
Clouds: broken clouds at 5900 feet AGL
Weather: no significant weather observed at this time

METAR text: EDMO 241850Z AUTO 32011KT 9000 // SCT063/// BKN077/// 11/05 Q1021
Conditions at: EDMO (OBERPFAFFENHOFEN, DE) observed 1850 UTC 24 March 2019
Temperature: 11.0°C (52°F)
Dewpoint: 5.0°C (41°F) [RH = 66%]
Pressure (altimeter): 30.15 inches Hg (1021.0 mb)
Winds: from the NW (320 degrees) at 13 MPH (11 knots; 5.7 m/s)
Visibility: 6 miles ( 9 km)
Ceiling: 7700 feet AGL
Clouds: scattered clouds at 6300 feet AGL
broken clouds at 7700 feet AGL
Weather: no significant weather observed at this time

AIRPORT MAP

RUNWAY INFORMATION
Runway 04 Runway length 7500 ft Runway width 147 ft
Runway elevation 1947 ft Runway displaced threshold 0 ft Runway heading 42
Runway 22 Runway length 7500 ft Runway width 147 ft
Runway elevation 1890 ft Runway displaced threshold 0 ft Runway heading 222

AIRPORT FREQUENCIES
Type AFIS Name MUNCHEN IN Frequency 126.95 MHZ
Type ARR Name MUNCHEN AR Frequency 120.775 MHZ
Type RDR Name MUNCHEN RA Frequency 127.95 MHZ
Type TWR Name TWR Frequency 119.55 MHZ

AIRPORT NEAR NAVIGATION AIDS
Type NDB-DME Name Oberpfaffenhofen Frequency 429 KHZ